createdAt,value
2023-05-13T00:00:19.577Z,54.30
2023-05-13T00:02:46.524Z,56.90
2023-05-13T00:05:13.223Z,59.20
2023-05-13T00:07:41.700Z,60.40
2023-05-13T00:10:08.646Z,60.80
2023-05-13T00:12:35.172Z,60.90
2023-05-13T00:15:01.850Z,60.80
2023-05-13T00:17:29.086Z,60.60
2023-05-13T00:19:55.697Z,61.80
2023-05-13T00:22:22.259Z,62.10
2023-05-13T00:24:48.894Z,63.10
2023-05-13T00:27:15.868Z,64.90
2023-05-13T00:29:42.414Z,65.40
2023-05-13T00:32:09.093Z,65.00
2023-05-13T00:34:35.677Z,65.50
2023-05-13T00:37:02.459Z,65.40
2023-05-13T00:39:29.082Z,65.60
2023-05-13T00:41:55.792Z,66.40
2023-05-13T00:44:22.429Z,65.80
2023-05-13T00:46:49.568Z,65.80
2023-05-13T00:49:16.601Z,66.10
2023-05-13T00:51:43.498Z,65.70
2023-05-13T00:54:10.054Z,65.90
2023-05-13T00:56:37.770Z,67.80
2023-05-13T00:59:04.653Z,69.60
2023-05-13T01:01:49.963Z,69.80
2023-05-13T01:04:41.638Z,69.50
2023-05-13T01:07:14.301Z,71.80
2023-05-13T01:09:48.357Z,71.50
2023-05-13T01:12:21.117Z,72.20
2023-05-13T01:15:04.817Z,72.70
2023-05-13T01:17:34.529Z,71.90
2023-05-13T01:20:02.430Z,70.70
2023-05-13T01:22:29.309Z,70.30
2023-05-13T01:24:55.879Z,72.90
2023-05-13T01:27:22.565Z,72.70
2023-05-13T01:29:49.487Z,73.20
2023-05-13T01:32:16.372Z,73.90
2023-05-13T01:34:43.693Z,74.50
2023-05-13T01:37:10.351Z,75.90
2023-05-13T01:39:37.677Z,77.60
2023-05-13T01:42:04.272Z,76.30
2023-05-13T01:44:31.297Z,77.30
2023-05-13T01:46:57.981Z,77.50
2023-05-13T01:49:25.819Z,76.90
2023-05-13T01:51:52.394Z,77.40
2023-05-13T01:54:19.014Z,77.40
2023-05-13T01:56:45.870Z,77.50
2023-05-13T01:59:12.430Z,77.50
2023-05-13T02:01:40.503Z,77.50
2023-05-13T02:04:07.325Z,77.70
2023-05-13T02:06:34.322Z,77.60
2023-05-13T02:09:00.898Z,75.00
2023-05-13T02:11:27.666Z,73.60
2023-05-13T02:13:54.277Z,73.60
2023-05-13T02:16:22.318Z,73.00
2023-05-13T02:18:48.960Z,72.70
2023-05-13T02:21:15.554Z,71.30
2023-05-13T02:23:42.115Z,72.90
2023-05-13T02:26:08.749Z,73.00
2023-05-13T02:28:35.300Z,72.60
2023-05-13T02:31:01.837Z,72.60
2023-05-13T02:33:28.507Z,72.20
2023-05-13T02:35:55.101Z,72.80
2023-05-13T02:38:21.637Z,71.10
2023-05-13T02:40:48.242Z,69.50
2023-05-13T02:43:14.849Z,69.60
2023-05-13T02:45:41.943Z,68.90
2023-05-13T02:48:08.760Z,69.50
2023-05-13T02:50:35.463Z,69.60
2023-05-13T02:53:02.129Z,68.40
2023-05-13T02:55:28.838Z,67.30
2023-05-13T02:57:56.817Z,66.80
2023-05-13T03:00:23.713Z,67.00
2023-05-13T03:02:50.714Z,69.40
2023-05-13T03:05:17.337Z,69.60
2023-05-13T03:07:44.030Z,69.60
2023-05-13T03:10:10.724Z,69.60
2023-05-13T03:12:37.355Z,68.60
2023-05-13T03:15:04.507Z,68.20
2023-05-13T03:17:32.004Z,68.50
2023-05-13T03:19:58.571Z,66.90
2023-05-13T03:22:25.271Z,66.90
2023-05-13T03:24:51.849Z,68.30
2023-05-13T03:27:18.798Z,69.80
2023-05-13T03:29:45.466Z,69.00
2023-05-13T03:32:12.038Z,70.00
2023-05-13T03:34:38.662Z,69.70
2023-05-13T03:37:06.482Z,69.10
2023-05-13T03:39:33.047Z,71.00
2023-05-13T03:41:59.765Z,71.80
2023-05-13T03:44:26.319Z,69.80
2023-05-13T03:46:53.009Z,69.80
2023-05-13T03:49:19.670Z,69.80
2023-05-13T03:51:46.254Z,70.80
2023-05-13T03:54:12.873Z,71.00
2023-05-13T03:56:39.526Z,71.40
2023-05-13T03:59:06.089Z,70.70
2023-05-13T04:01:32.681Z,69.90
2023-05-13T04:03:59.284Z,70.90
2023-05-13T04:06:25.871Z,69.30
2023-05-13T04:08:52.513Z,69.30
2023-05-13T04:11:19.210Z,69.00
2023-05-13T04:13:46.037Z,69.10
2023-05-13T04:16:12.773Z,68.80
2023-05-13T04:18:39.479Z,69.10
2023-05-13T04:21:07.213Z,69.10
2023-05-13T04:23:33.759Z,65.40
2023-05-13T04:26:00.342Z,64.50
2023-05-13T04:28:26.939Z,66.40
2023-05-13T04:30:54.300Z,65.70
2023-05-13T04:33:21.084Z,65.00
2023-05-13T04:35:47.956Z,63.70
2023-05-13T04:38:14.696Z,63.70
2023-05-13T04:40:41.498Z,63.70
2023-05-13T04:43:08.094Z,64.80
2023-05-13T04:45:34.708Z,64.60
2023-05-13T04:48:01.862Z,64.30
2023-05-13T04:50:28.727Z,63.70
2023-05-13T04:52:56.546Z,63.50
2023-05-13T04:55:23.309Z,61.70
2023-05-13T04:57:50.200Z,60.80
2023-05-13T05:00:17.072Z,60.80
2023-05-13T05:02:43.677Z,60.80
2023-05-13T05:05:10.305Z,60.20
2023-05-13T05:07:40.426Z,59.40
2023-05-13T05:10:07.990Z,59.10
2023-05-13T05:12:34.535Z,56.10
2023-05-13T05:15:01.153Z,57.80
2023-05-13T05:17:32.499Z,56.90
2023-05-13T05:19:59.753Z,51.20
2023-05-13T05:22:26.693Z,51.10
2023-05-13T05:24:53.496Z,51.20
2023-05-13T05:27:20.686Z,51.10
2023-05-13T05:29:47.238Z,51.20
2023-05-13T05:32:13.972Z,49.90
2023-05-13T05:34:42.559Z,49.50
2023-05-13T05:37:09.398Z,48.80
2023-05-13T05:39:36.206Z,47.70
2023-05-13T05:42:02.863Z,48.80
2023-05-13T05:44:29.512Z,50.20
2023-05-13T05:46:56.119Z,47.40
2023-05-13T05:49:22.713Z,46.00
2023-05-13T05:51:49.340Z,47.40
2023-05-13T05:54:16.036Z,48.00
2023-05-13T05:56:42.638Z,49.80
2023-05-13T05:59:09.424Z,46.40
2023-05-13T06:01:36.938Z,46.40
2023-05-13T06:04:04.285Z,45.90
2023-05-13T06:06:32.400Z,47.20
2023-05-13T06:08:59.021Z,43.90
2023-05-13T06:11:25.604Z,42.30
2023-05-13T06:13:53.134Z,41.30
2023-05-13T06:16:19.730Z,41.20
2023-05-13T06:18:46.498Z,41.40
2023-05-13T06:21:13.087Z,36.00
2023-05-13T06:23:39.934Z,37.00
2023-05-13T06:26:06.528Z,36.90
2023-05-13T06:28:33.150Z,35.10
2023-05-13T06:30:59.835Z,33.70
2023-05-13T06:33:27.006Z,33.60
2023-05-13T06:35:53.710Z,37.30
2023-05-13T06:38:20.316Z,32.70
2023-05-13T06:40:46.915Z,42.30
2023-05-13T06:43:14.650Z,29.00
2023-05-13T06:45:41.425Z,23.30
2023-05-13T06:48:08.249Z,22.50
2023-05-13T06:50:34.937Z,19.80
2023-05-13T06:53:01.549Z,26.90
2023-05-13T06:55:28.139Z,20.80
2023-05-13T06:57:54.861Z,21.80
2023-05-13T07:00:21.785Z,20.40
2023-05-13T07:02:48.523Z,17.20
2023-05-13T07:05:15.097Z,15.80
2023-05-13T07:07:43.248Z,16.40
2023-05-13T07:10:10.061Z,18.30
2023-05-13T07:12:36.735Z,13.80
2023-05-13T07:15:03.749Z,18.10
2023-05-13T07:17:31.410Z,16.90
2023-05-13T07:19:58.295Z,18.50
2023-05-13T07:22:24.840Z,15.80
2023-05-13T07:24:51.832Z,15.20
2023-05-13T07:27:18.462Z,17.30
2023-05-13T07:29:45.033Z,18.20
2023-05-13T07:32:11.562Z,16.00
2023-05-13T07:34:38.290Z,14.00
2023-05-13T07:37:05.448Z,11.70
2023-05-13T07:39:32.057Z,13.70
2023-05-13T07:41:58.752Z,13.50
2023-05-13T07:44:25.926Z,15.30
2023-05-13T07:46:53.710Z,15.00
2023-05-13T07:49:21.077Z,17.20
2023-05-13T07:51:47.725Z,18.10
2023-05-13T07:54:14.434Z,21.20
2023-05-13T07:56:40.988Z,20.60
2023-05-13T07:59:07.688Z,20.90
2023-05-13T08:01:34.324Z,18.10
2023-05-13T08:04:01.117Z,18.00
2023-05-13T08:06:28.019Z,17.90
2023-05-13T08:08:54.573Z,22.00
2023-05-13T08:11:21.789Z,22.40
2023-05-13T08:13:48.331Z,22.50
2023-05-13T08:16:15.140Z,21.30
2023-05-13T08:18:43.311Z,20.60
2023-05-13T08:21:09.938Z,20.80
2023-05-13T08:23:44.794Z,20.70
2023-05-13T08:26:13.278Z,19.80
2023-05-13T08:28:42.811Z,22.10
2023-05-13T08:31:12.729Z,19.70
2023-05-13T08:33:41.581Z,20.70
2023-05-13T08:36:08.372Z,19.10
2023-05-13T08:38:34.922Z,19.40
2023-05-13T08:41:03.752Z,19.80
2023-05-13T08:43:32.331Z,18.10
2023-05-13T08:46:01.841Z,20.00
2023-05-13T08:48:28.820Z,20.40
2023-05-13T08:50:56.364Z,18.20
2023-05-13T08:53:24.971Z,16.30
2023-05-13T08:55:52.118Z,16.70
2023-05-13T08:58:18.649Z,16.40
2023-05-13T09:00:45.703Z,12.20
2023-05-13T09:03:12.976Z,9.90
2023-05-13T09:05:39.769Z,5.00
2023-05-13T09:08:09.896Z,4.90
2023-05-13T09:10:36.962Z,6.80
2023-05-13T09:13:04.776Z,4.80
2023-05-13T09:15:31.472Z,4.80
2023-05-13T09:18:02.022Z,4.70
2023-05-13T09:20:28.763Z,5.40
2023-05-13T09:22:55.402Z,7.30
2023-05-13T09:25:25.215Z,9.30
2023-05-13T09:27:52.955Z,6.80
2023-05-13T09:30:22.397Z,8.20
2023-05-13T09:33:09.906Z,9.10
2023-05-13T09:35:41.575Z,10.80
2023-05-13T09:38:27.642Z,9.00
2023-05-13T09:40:58.764Z,10.50
2023-05-13T09:43:27.005Z,11.50
2023-05-13T09:45:57.839Z,12.80
2023-05-13T09:48:25.793Z,13.50
2023-05-13T09:50:53.633Z,13.90
2023-05-13T09:53:23.065Z,13.60
2023-05-13T09:55:50.868Z,11.40
2023-05-13T09:58:18.990Z,11.60
2023-05-13T10:00:46.255Z,10.10
2023-05-13T10:03:13.707Z,10.30
2023-05-13T10:05:41.007Z,9.00
2023-05-13T10:08:08.967Z,7.60
2023-05-13T10:10:36.200Z,5.40
2023-05-13T10:13:10.931Z,4.70
2023-05-13T10:15:42.821Z,4.80
2023-05-13T10:18:10.468Z,3.70
2023-05-13T10:20:37.230Z,4.70
2023-05-13T10:23:04.551Z,4.80
2023-05-13T10:25:32.830Z,4.90
2023-05-13T10:27:59.938Z,4.80
2023-05-13T10:30:27.517Z,1.00
2023-05-13T10:32:54.633Z,1.00
2023-05-13T10:35:22.355Z,1.00
2023-05-13T10:38:01.786Z,1.00
2023-05-13T10:40:46.973Z,1.00
2023-05-13T10:43:25.135Z,1.00
2023-05-13T10:45:56.010Z,1.00
2023-05-13T10:48:22.863Z,1.10
2023-05-13T10:50:56.549Z,1.00
2023-05-13T10:53:23.376Z,1.00
2023-05-13T10:55:54.262Z,1.00
2023-05-13T10:58:22.477Z,1.00
2023-05-13T11:00:50.831Z,1.00
2023-05-13T11:03:20.636Z,1.00
2023-05-13T11:05:58.609Z,1.00
2023-05-13T11:08:38.867Z,1.00
2023-05-13T11:11:17.437Z,1.00
2023-05-13T11:13:43.979Z,1.00
2023-05-13T11:16:12.713Z,1.00
2023-05-13T11:18:42.546Z,1.00
2023-05-13T11:21:09.309Z,1.00
2023-05-13T11:23:54.505Z,1.00
2023-05-13T11:26:21.523Z,1.00
2023-05-13T11:28:54.227Z,1.00
2023-05-13T11:31:21.663Z,1.00
2023-05-13T11:34:07.277Z,1.00
2023-05-13T11:36:34.700Z,1.00
2023-05-13T11:39:07.684Z,1.00
2023-05-13T11:41:34.387Z,1.00
2023-05-13T11:44:03.205Z,1.00
2023-05-13T11:46:30.561Z,1.00
2023-05-13T11:48:57.178Z,1.00
2023-05-13T11:51:25.216Z,1.00
2023-05-13T11:53:53.280Z,1.00
2023-05-13T11:56:20.083Z,1.00
2023-05-13T11:58:46.663Z,1.00
2023-05-13T12:01:16.226Z,1.00
2023-05-13T12:03:42.788Z,3.20
2023-05-13T12:06:09.417Z,2.30
2023-05-13T12:08:42.754Z,4.70
2023-05-13T12:11:13.033Z,3.30
2023-05-13T12:13:41.058Z,3.00
2023-05-13T12:16:07.945Z,1.40
2023-05-13T12:18:35.986Z,1.00
2023-05-13T12:21:13.128Z,1.00
2023-05-13T12:23:40.974Z,1.00
2023-05-13T12:26:07.965Z,1.00
2023-05-13T12:28:34.534Z,1.00
2023-05-13T12:31:01.863Z,1.00
2023-05-13T12:33:31.018Z,1.00
2023-05-13T12:36:17.458Z,1.00
2023-05-13T12:39:01.347Z,1.00
2023-05-13T12:41:29.035Z,1.00
2023-05-13T12:43:57.248Z,1.00
2023-05-13T12:46:26.089Z,1.00
2023-05-13T12:48:56.539Z,1.00
2023-05-13T12:51:23.610Z,1.00
2023-05-13T12:53:50.262Z,1.00
2023-05-13T12:56:17.055Z,1.00
2023-05-13T12:58:43.724Z,1.00
2023-05-13T13:01:10.301Z,1.00
2023-05-13T13:03:37.050Z,1.00
2023-05-13T13:06:03.804Z,1.00
2023-05-13T13:08:30.791Z,1.00
2023-05-13T13:10:58.783Z,1.00
2023-05-13T13:13:25.341Z,1.00
2023-05-13T13:15:52.093Z,1.00
2023-05-13T13:18:18.841Z,1.00
2023-05-13T13:20:45.531Z,1.00
2023-05-13T13:23:12.151Z,1.00
2023-05-13T13:25:38.924Z,1.00
2023-05-13T13:28:05.535Z,1.00
2023-05-13T13:30:32.233Z,1.00
2023-05-13T13:32:59.044Z,1.00
2023-05-13T13:35:25.930Z,1.00
2023-05-13T13:37:54.195Z,1.00
2023-05-13T13:40:21.060Z,1.00
2023-05-13T13:42:47.789Z,1.00
2023-05-13T13:45:14.465Z,1.00
2023-05-13T13:47:41.252Z,1.00
2023-05-13T13:50:08.016Z,1.00
2023-05-13T13:52:34.666Z,1.00
2023-05-13T13:55:01.202Z,1.00
2023-05-13T13:57:27.768Z,1.00
2023-05-13T13:59:54.365Z,1.00
2023-05-13T14:02:20.930Z,1.00
2023-05-13T14:04:47.750Z,1.00
2023-05-13T14:07:14.322Z,1.00
2023-05-13T14:09:40.887Z,1.00
2023-05-13T14:12:07.668Z,1.00
2023-05-13T14:14:34.227Z,1.00
2023-05-13T14:17:00.787Z,1.00
2023-05-13T14:19:27.384Z,1.00
2023-05-13T14:21:53.960Z,1.00
2023-05-13T14:24:20.564Z,1.00
2023-05-13T14:26:47.165Z,1.00
2023-05-13T14:29:13.687Z,1.00
2023-05-13T14:31:41.127Z,1.00
2023-05-13T14:34:08.211Z,1.00
2023-05-13T14:36:36.074Z,1.00
2023-05-13T14:39:03.158Z,1.00
2023-05-13T14:41:30.259Z,1.00
2023-05-13T14:43:56.787Z,1.00
2023-05-13T14:46:23.398Z,1.00
2023-05-13T14:48:50.080Z,1.00
2023-05-13T14:51:16.734Z,1.00
2023-05-13T14:53:43.402Z,1.00
2023-05-13T14:56:10.122Z,1.00
2023-05-13T14:58:36.829Z,1.00
2023-05-13T15:01:04.174Z,1.00
2023-05-13T15:03:30.862Z,1.00
2023-05-13T15:05:58.070Z,1.00
2023-05-13T15:08:25.476Z,1.00
2023-05-13T15:10:52.157Z,1.00
2023-05-13T15:13:19.117Z,1.00
2023-05-13T15:15:46.104Z,1.00
2023-05-13T15:18:13.297Z,1.00
2023-05-13T15:20:39.897Z,1.00
2023-05-13T15:23:06.553Z,1.00
2023-05-13T15:25:33.142Z,1.00
2023-05-13T15:27:59.712Z,1.00
2023-05-13T15:30:26.361Z,1.00
2023-05-13T15:32:53.134Z,1.00
2023-05-13T15:35:19.820Z,1.00
2023-05-13T15:37:46.421Z,1.00
2023-05-13T15:40:14.295Z,1.00
2023-05-13T15:42:42.185Z,1.00
2023-05-13T15:45:08.941Z,1.00
2023-05-13T15:47:35.777Z,1.00
2023-05-13T15:50:03.812Z,1.00
2023-05-13T15:52:30.504Z,1.00
2023-05-13T15:54:57.051Z,1.00
2023-05-13T15:57:23.646Z,1.00
2023-05-13T15:59:50.310Z,1.00
2023-05-13T16:02:18.358Z,1.00
2023-05-13T16:04:45.178Z,1.00
2023-05-13T16:07:12.081Z,1.00
2023-05-13T16:09:38.917Z,1.00
2023-05-13T16:12:05.672Z,1.00
2023-05-13T16:14:32.383Z,1.00
2023-05-13T16:16:59.766Z,1.00
2023-05-13T16:19:26.494Z,1.00
2023-05-13T16:21:53.204Z,1.00
2023-05-13T16:24:19.826Z,1.00
2023-05-13T16:26:46.459Z,1.00
2023-05-13T16:29:13.197Z,1.00
2023-05-13T16:31:39.777Z,1.00
2023-05-13T16:34:07.229Z,1.00
2023-05-13T16:36:33.790Z,1.00
2023-05-13T16:39:00.559Z,1.00
2023-05-13T16:41:27.123Z,1.00
2023-05-13T16:43:53.719Z,1.00
2023-05-13T16:46:21.338Z,1.00
2023-05-13T16:48:47.926Z,1.00
2023-05-13T16:51:14.532Z,1.00
2023-05-13T16:53:41.093Z,1.00
2023-05-13T16:56:07.751Z,1.00
2023-05-13T16:58:34.320Z,1.00
2023-05-13T17:01:01.069Z,1.00
2023-05-13T17:03:27.961Z,1.00
2023-05-13T17:05:54.682Z,1.00
2023-05-13T17:08:24.338Z,1.00
2023-05-13T17:10:50.940Z,1.00
2023-05-13T17:13:19.589Z,1.00
2023-05-13T17:15:46.745Z,1.00
2023-05-13T17:18:13.334Z,1.00
2023-05-13T17:20:40.090Z,1.00
2023-05-13T17:23:06.652Z,1.00
2023-05-13T17:25:33.272Z,1.00
2023-05-13T17:27:59.836Z,1.00
2023-05-13T17:30:26.394Z,1.00
2023-05-13T17:32:53.321Z,1.00
2023-05-13T17:35:20.112Z,1.00
2023-05-13T17:37:46.708Z,1.00
2023-05-13T17:40:13.434Z,1.00
2023-05-13T17:42:40.018Z,1.00
2023-05-13T17:45:06.976Z,1.00
2023-05-13T17:47:33.694Z,1.00
2023-05-13T17:50:00.325Z,1.00
2023-05-13T17:52:26.926Z,1.50
2023-05-13T17:54:53.596Z,3.30
2023-05-13T17:57:21.216Z,4.40
2023-05-13T17:59:47.818Z,4.30
2023-05-13T18:02:14.460Z,4.70
2023-05-13T18:04:41.992Z,5.80
2023-05-13T18:07:08.752Z,7.30
2023-05-13T18:09:35.628Z,8.00
2023-05-13T18:12:03.235Z,8.30
2023-05-13T18:14:32.154Z,8.00
2023-05-13T18:16:59.276Z,7.40
2023-05-13T18:19:26.630Z,8.80
2023-05-13T18:21:53.212Z,8.80
2023-05-13T18:24:19.817Z,10.30
2023-05-13T18:26:46.346Z,11.30
2023-05-13T18:29:12.966Z,11.60
2023-05-13T18:31:39.579Z,10.60
2023-05-13T18:34:06.278Z,12.60
2023-05-13T18:36:32.880Z,13.40
2023-05-13T18:39:00.644Z,13.40
2023-05-13T18:41:27.313Z,13.40
2023-05-13T18:43:53.876Z,13.30
2023-05-13T18:46:20.696Z,14.10
2023-05-13T18:48:47.348Z,15.60
2023-05-13T18:51:14.544Z,16.30
2023-05-13T18:53:41.302Z,17.10
2023-05-13T18:56:07.970Z,17.80
2023-05-13T18:58:34.503Z,19.70
2023-05-13T19:01:01.252Z,19.90
2023-05-13T19:03:28.345Z,21.80
2023-05-13T19:05:55.196Z,22.20
2023-05-13T19:08:22.459Z,22.30
2023-05-13T19:10:49.783Z,22.30
2023-05-13T19:13:19.677Z,23.10
2023-05-13T19:15:46.511Z,24.90
2023-05-13T19:18:13.144Z,24.60
2023-05-13T19:20:39.846Z,25.30
2023-05-13T19:23:06.562Z,26.00
2023-05-13T19:25:33.146Z,26.70
2023-05-13T19:27:59.863Z,27.10
2023-05-13T19:30:26.413Z,27.80
2023-05-13T19:32:53.507Z,28.70
2023-05-13T19:35:20.167Z,30.00
2023-05-13T19:37:46.755Z,28.80
2023-05-13T19:40:13.354Z,29.70
2023-05-13T19:42:39.994Z,31.20
2023-05-13T19:45:07.059Z,31.30
2023-05-13T19:47:34.664Z,32.30
2023-05-13T19:50:01.404Z,31.20
2023-05-13T19:52:28.082Z,31.00
2023-05-13T19:54:54.661Z,32.00
2023-05-13T19:57:21.812Z,34.10
2023-05-13T19:59:48.746Z,35.30
2023-05-13T20:02:15.360Z,36.40
2023-05-13T20:04:41.946Z,36.80
2023-05-13T20:07:09.444Z,38.30
2023-05-13T20:09:36.171Z,39.30
2023-05-13T20:12:03.645Z,40.40
2023-05-13T20:14:43.314Z,41.90
2023-05-13T20:17:10.142Z,41.80
2023-05-13T20:19:36.844Z,40.40
2023-05-13T20:22:03.682Z,41.80
2023-05-13T20:24:30.309Z,43.80
2023-05-13T20:26:56.904Z,41.90
2023-05-13T20:29:23.479Z,41.90
2023-05-13T20:31:50.091Z,42.30
2023-05-13T20:34:16.771Z,41.90
2023-05-13T20:36:43.380Z,40.80
2023-05-13T20:39:09.999Z,39.20
2023-05-13T20:41:36.599Z,41.90
2023-05-13T20:44:03.246Z,39.20
2023-05-13T20:46:29.868Z,41.90
2023-05-13T20:48:56.524Z,41.00
2023-05-13T20:51:23.252Z,41.30
2023-05-13T20:53:50.285Z,41.50
2023-05-13T20:56:17.483Z,43.20
2023-05-13T20:58:44.021Z,41.90
2023-05-13T21:01:12.211Z,41.90
2023-05-13T21:03:38.838Z,42.10
2023-05-13T21:06:05.543Z,39.60
2023-05-13T21:08:36.708Z,39.10
2023-05-13T21:11:03.615Z,39.10
2023-05-13T21:13:30.586Z,38.70
2023-05-13T21:15:57.501Z,39.10
2023-05-13T21:18:24.325Z,38.90
2023-05-13T21:20:51.542Z,37.80
2023-05-13T21:23:19.889Z,38.70
2023-05-13T21:25:47.111Z,38.20
2023-05-13T21:28:13.797Z,37.80
2023-05-13T21:30:40.418Z,36.40
2023-05-13T21:33:08.105Z,36.80
2023-05-13T21:35:34.677Z,40.00
2023-05-13T21:38:11.375Z,40.90
2023-05-13T21:40:39.097Z,41.00
2023-05-13T21:43:05.720Z,40.60
2023-05-13T21:45:32.310Z,41.80
2023-05-13T21:47:59.082Z,41.80
2023-05-13T21:50:25.733Z,41.80
2023-05-13T21:52:52.368Z,41.70
2023-05-13T21:55:18.930Z,41.70
2023-05-13T21:57:46.242Z,41.80
2023-05-13T22:00:15.748Z,41.70
2023-05-13T22:02:42.450Z,41.70
2023-05-13T22:05:09.337Z,41.70
2023-05-13T22:07:36.454Z,45.10
2023-05-13T22:10:03.195Z,47.60
2023-05-13T22:12:29.765Z,50.20
2023-05-13T22:14:56.292Z,52.10
2023-05-13T22:17:23.043Z,54.40
2023-05-13T22:19:49.818Z,56.30
2023-05-13T22:22:16.571Z,57.20
2023-05-13T22:24:43.123Z,57.90
2023-05-13T22:27:09.749Z,58.90
2023-05-13T22:29:36.332Z,59.90
2023-05-13T22:32:03.287Z,60.00
2023-05-13T22:34:30.098Z,60.20
2023-05-13T22:36:56.703Z,61.60
2023-05-13T22:39:23.540Z,61.60
2023-05-13T22:41:50.317Z,61.50
2023-05-13T22:44:17.178Z,61.60
2023-05-13T22:46:43.828Z,64.30
2023-05-13T22:49:12.318Z,64.30
2023-05-13T22:51:38.919Z,64.90
2023-05-13T22:54:05.979Z,64.50
2023-05-13T22:56:32.601Z,65.90
2023-05-13T22:58:59.178Z,68.00
2023-05-13T23:01:25.970Z,68.40
2023-05-13T23:03:52.566Z,69.90
2023-05-13T23:06:19.166Z,70.00
2023-05-13T23:08:45.678Z,70.00
2023-05-13T23:11:12.260Z,69.80
2023-05-13T23:13:38.805Z,69.80
2023-05-13T23:16:05.615Z,69.70
2023-05-13T23:18:34.145Z,71.30
2023-05-13T23:21:01.466Z,71.70
2023-05-13T23:23:28.055Z,69.10
2023-05-13T23:25:54.585Z,70.60
2023-05-13T23:28:21.152Z,70.70
2023-05-13T23:30:47.736Z,73.10
2023-05-13T23:33:14.320Z,73.70
2023-05-13T23:35:41.105Z,74.00
2023-05-13T23:38:07.622Z,76.30
2023-05-13T23:40:34.226Z,77.50
2023-05-13T23:43:00.779Z,77.30
2023-05-13T23:45:27.464Z,76.60
2023-05-13T23:47:54.052Z,76.30
2023-05-13T23:50:20.850Z,75.70
2023-05-13T23:52:51.181Z,75.70
2023-05-13T23:55:19.233Z,76.60
2023-05-13T23:57:46.608Z,76.60
